sensor_id;sensor_type;location;lat;lon;timestamp;pressure;altitude;pressure_sealevel;temperature;humidity
82033;BME280;71595;52.180;4.512;2023-09-30T00:00:58;102543.16;;;13.30;81.51
82033;BME280;71595;52.180;4.512;2023-09-30T00:03:24;102550.88;;;13.33;81.14
82033;BME280;71595;52.180;4.512;2023-09-30T00:05:50;102560.28;;;13.32;81.34
82033;BME280;71595;52.180;4.512;2023-09-30T00:08:15;102555.47;;;13.38;80.97
82033;BME280;71595;52.180;4.512;2023-09-30T00:10:40;102551.34;;;13.35;80.94
82033;BME280;71595;52.180;4.512;2023-09-30T00:13:06;102557.13;;;13.39;80.70
82033;BME280;71595;52.180;4.512;2023-09-30T00:15:34;102559.69;;;13.35;80.89
82033;BME280;71595;52.180;4.512;2023-09-30T00:18:01;102567.50;;;13.33;81.06
82033;BME280;71595;52.180;4.512;2023-09-30T00:20:27;102573.06;;;13.33;81.31
82033;BME280;71595;52.180;4.512;2023-09-30T00:22:53;102570.09;;;13.29;81.51
82033;BME280;71595;52.180;4.512;2023-09-30T00:25:18;102571.53;;;13.27;81.04
82033;BME280;71595;52.180;4.512;2023-09-30T00:27:46;102566.59;;;13.24;81.40
82033;BME280;71595;52.180;4.512;2023-09-30T00:30:11;102575.06;;;13.19;81.16
82033;BME280;71595;52.180;4.512;2023-09-30T00:32:36;102574.94;;;13.24;81.21
82033;BME280;71595;52.180;4.512;2023-09-30T00:35:02;102570.50;;;13.23;81.25
82033;BME280;71595;52.180;4.512;2023-09-30T00:37:28;102576.06;;;13.23;81.44
82033;BME280;71595;52.180;4.512;2023-09-30T00:39:53;102575.06;;;13.19;81.27
82033;BME280;71595;52.180;4.512;2023-09-30T00:42:20;102578.47;;;13.16;81.18
82033;BME280;71595;52.180;4.512;2023-09-30T00:44:46;102581.88;;;13.12;81.43
82033;BME280;71595;52.180;4.512;2023-09-30T00:47:13;102585.13;;;13.15;81.02
82033;BME280;71595;52.180;4.512;2023-09-30T00:49:40;102590.06;;;13.18;81.24
82033;BME280;71595;52.180;4.512;2023-09-30T00:52:09;102586.97;;;13.19;81.47
82033;BME280;71595;52.180;4.512;2023-09-30T00:54:34;102585.66;;;13.17;81.46
82033;BME280;71595;52.180;4.512;2023-09-30T00:57:00;102599.53;;;13.17;81.53
82033;BME280;71595;52.180;4.512;2023-09-30T00:59:26;102600.78;;;13.10;81.74
82033;BME280;71595;52.180;4.512;2023-09-30T01:01:54;102599.78;;;13.06;81.94
82033;BME280;71595;52.180;4.512;2023-09-30T01:04:23;102611.34;;;13.08;81.93
82033;BME280;71595;52.180;4.512;2023-09-30T01:06:48;102614.13;;;13.08;82.37
82033;BME280;71595;52.180;4.512;2023-09-30T01:09:14;102614.75;;;13.05;82.37
82033;BME280;71595;52.180;4.512;2023-09-30T01:11:40;102612.50;;;13.07;82.15
82033;BME280;71595;52.180;4.512;2023-09-30T01:14:25;102614.97;;;13.09;82.05
82033;BME280;71595;52.180;4.512;2023-09-30T01:16:50;102609.13;;;13.10;82.31
82033;BME280;71595;52.180;4.512;2023-09-30T01:19:16;102610.09;;;13.15;82.06
82033;BME280;71595;52.180;4.512;2023-09-30T01:21:41;102612.50;;;13.07;82.25
82033;BME280;71595;52.180;4.512;2023-09-30T01:24:07;102610.88;;;13.06;82.62
82033;BME280;71595;52.180;4.512;2023-09-30T01:26:32;102602.34;;;13.03;82.61
82033;BME280;71595;52.180;4.512;2023-09-30T01:28:58;102606.34;;;13.10;82.48
82033;BME280;71595;52.180;4.512;2023-09-30T01:31:23;102610.88;;;13.06;82.59
82033;BME280;71595;52.180;4.512;2023-09-30T01:33:49;102599.16;;;13.09;82.88
82033;BME280;71595;52.180;4.512;2023-09-30T01:36:15;102595.56;;;13.09;82.55
82033;BME280;71595;52.180;4.512;2023-09-30T01:38:40;102590.13;;;13.04;82.54
82033;BME280;71595;52.180;4.512;2023-09-30T01:41:06;102586.66;;;12.98;82.76
82033;BME280;71595;52.180;4.512;2023-09-30T01:43:31;102589.31;;;13.03;82.31
82033;BME280;71595;52.180;4.512;2023-09-30T01:45:56;102590.75;;;13.01;82.71
82033;BME280;71595;52.180;4.512;2023-09-30T01:48:23;102585.50;;;12.99;82.44
82033;BME280;71595;52.180;4.512;2023-09-30T01:50:48;102595.28;;;12.97;82.49
82033;BME280;71595;52.180;4.512;2023-09-30T01:53:13;102601.34;;;12.99;82.67
82033;BME280;71595;52.180;4.512;2023-09-30T01:55:39;102599.31;;;12.90;82.79
82033;BME280;71595;52.180;4.512;2023-09-30T01:58:04;102606.16;;;12.93;83.02
82033;BME280;71595;52.180;4.512;2023-09-30T02:00:30;102616.44;;;12.92;83.56
82033;BME280;71595;52.180;4.512;2023-09-30T02:02:55;102606.16;;;12.93;83.04
82033;BME280;71595;52.180;4.512;2023-09-30T02:05:22;102600.53;;;12.98;83.52
82033;BME280;71595;52.180;4.512;2023-09-30T02:07:48;102601.03;;;13.00;83.71
82033;BME280;71595;52.180;4.512;2023-09-30T02:10:13;102604.28;;;13.02;83.82
82033;BME280;71595;52.180;4.512;2023-09-30T02:12:39;102602.69;;;13.01;83.72
82033;BME280;71595;52.180;4.512;2023-09-30T02:15:04;102602.03;;;13.04;83.95
82033;BME280;71595;52.180;4.512;2023-09-30T02:17:32;102606.44;;;13.05;83.81
82033;BME280;71595;52.180;4.512;2023-09-30T02:19:57;102603.03;;;13.08;83.88
82033;BME280;71595;52.180;4.512;2023-09-30T02:22:23;102597.50;;;13.08;83.97
82033;BME280;71595;52.180;4.512;2023-09-30T02:24:49;102589.69;;;13.10;84.02
82033;BME280;71595;52.180;4.512;2023-09-30T02:27:15;102601.28;;;13.12;84.46
82033;BME280;71595;52.180;4.512;2023-09-30T02:29:40;102584.66;;;13.12;84.36
82033;BME280;71595;52.180;4.512;2023-09-30T02:32:06;102596.25;;;13.15;84.35
82033;BME280;71595;52.180;4.512;2023-09-30T02:34:31;102591.22;;;13.17;84.28
82033;BME280;71595;52.180;4.512;2023-09-30T02:36:57;102594.97;;;13.21;84.19
82033;BME280;71595;52.180;4.512;2023-09-30T02:39:22;102584.50;;;13.18;84.26
82033;BME280;71595;52.180;4.512;2023-09-30T02:41:47;102592.84;;;13.18;83.99
82033;BME280;71595;52.180;4.512;2023-09-30T02:44:15;102595.78;;;13.21;84.14
82033;BME280;71595;52.180;4.512;2023-09-30T02:46:40;102592.06;;;13.26;84.19
82033;BME280;71595;52.180;4.512;2023-09-30T02:49:06;102602.84;;;13.27;84.62
82033;BME280;71595;52.180;4.512;2023-09-30T02:51:31;102605.63;;;13.27;84.44
82033;BME280;71595;52.180;4.512;2023-09-30T02:53:57;102598.84;;;13.34;84.16
82033;BME280;71595;52.180;4.512;2023-09-30T02:56:22;102597.41;;;13.36;84.10
82033;BME280;71595;52.180;4.512;2023-09-30T02:58:50;102595.97;;;13.39;84.28
82033;BME280;71595;52.180;4.512;2023-09-30T03:01:17;102591.41;;;13.43;84.03
82033;BME280;71595;52.180;4.512;2023-09-30T03:03:43;102588.31;;;13.44;84.01
82033;BME280;71595;52.180;4.512;2023-09-30T03:06:10;102589.97;;;13.45;84.34
82033;BME280;71595;52.180;4.512;2023-09-30T03:08:36;102593.84;;;13.44;84.39
82033;BME280;71595;52.180;4.512;2023-09-30T03:11:01;102591.91;;;13.45;84.46
82033;BME280;71595;52.180;4.512;2023-09-30T03:13:27;102588.84;;;13.46;84.47
82033;BME280;71595;52.180;4.512;2023-09-30T03:15:52;102585.44;;;13.50;84.40
82033;BME280;71595;52.180;4.512;2023-09-30T03:18:18;102585.44;;;13.50;84.58
82033;BME280;71595;52.180;4.512;2023-09-30T03:20:48;102585.44;;;13.50;84.45
82033;BME280;71595;52.180;4.512;2023-09-30T03:23:15;102588.69;;;13.52;84.80
82033;BME280;71595;52.180;4.512;2023-09-30T03:25:41;102589.19;;;13.54;84.77
82033;BME280;71595;52.180;4.512;2023-09-30T03:28:07;102584.16;;;13.56;84.75
82033;BME280;71595;52.180;4.512;2023-09-30T03:30:32;102585.78;;;13.57;84.79
82033;BME280;71595;52.180;4.512;2023-09-30T03:32:58;102582.34;;;13.60;84.55
82033;BME280;71595;52.180;4.512;2023-09-30T03:35:23;102585.66;;;13.62;84.94
82033;BME280;71595;52.180;4.512;2023-09-30T03:37:49;102590.56;;;13.65;84.79
82033;BME280;71595;52.180;4.512;2023-09-30T03:40:15;102587.78;;;13.65;84.77
82033;BME280;71595;52.180;4.512;2023-09-30T03:42:45;102589.41;;;13.66;84.96
82033;BME280;71595;52.180;4.512;2023-09-30T03:45:11;102580.59;;;13.64;85.13
82033;BME280;71595;52.180;4.512;2023-09-30T03:47:40;102575.22;;;13.68;84.92
82033;BME280;71595;52.180;4.512;2023-09-30T03:50:06;102587.78;;;13.65;85.15
82033;BME280;71595;52.180;4.512;2023-09-30T03:52:39;102577.69;;;13.69;84.98
82033;BME280;71595;52.180;4.512;2023-09-30T03:55:04;102589.28;;;13.71;85.22
82033;BME280;71595;52.180;4.512;2023-09-30T03:57:31;102587.34;;;13.72;85.19
82033;BME280;71595;52.180;4.512;2023-09-30T03:59:57;102586.19;;;13.73;85.03
82033;BME280;71595;52.180;4.512;2023-09-30T04:02:22;102593.06;;;13.75;85.07
82033;BME280;71595;52.180;4.512;2023-09-30T04:04:47;102586.19;;;13.73;85.47
82033;BME280;71595;52.180;4.512;2023-09-30T04:07:16;102584.25;;;13.73;85.34
82033;BME280;71595;52.180;4.512;2023-09-30T04:09:42;102581.16;;;13.75;85.25
82033;BME280;71595;52.180;4.512;2023-09-30T04:12:07;102582.97;;;13.79;85.23
82033;BME280;71595;52.180;4.512;2023-09-30T04:14:33;102595.53;;;13.77;85.24
82033;BME280;71595;52.180;4.512;2023-09-30T04:16:58;102585.22;;;13.77;85.29
82033;BME280;71595;52.180;4.512;2023-09-30T04:19:23;102592.75;;;13.77;85.33
82033;BME280;71595;52.180;4.512;2023-09-30T04:21:49;102598.28;;;13.77;85.41
82033;BME280;71595;52.180;4.512;2023-09-30T04:24:14;102602.88;;;13.81;85.22
82033;BME280;71595;52.180;4.512;2023-09-30T04:26:40;102605.81;;;13.76;85.53
82033;BME280;71595;52.180;4.512;2023-09-30T04:29:06;102613.00;;;13.77;85.47
82033;BME280;71595;52.180;4.512;2023-09-30T04:31:37;102604.34;;;13.79;85.56
82033;BME280;71595;52.180;4.512;2023-09-30T04:34:04;102609.56;;;13.80;85.66
82033;BME280;71595;52.180;4.512;2023-09-30T04:36:36;102606.78;;;13.80;85.58
82033;BME280;71595;52.180;4.512;2023-09-30T04:39:01;102604.84;;;13.81;85.66
82033;BME280;71595;52.180;4.512;2023-09-30T04:41:28;102610.09;;;13.82;85.52
82033;BME280;71595;52.180;4.512;2023-09-30T04:43:53;102617.91;;;13.80;85.97
82033;BME280;71595;52.180;4.512;2023-09-30T04:46:19;102625.09;;;13.81;85.84
82033;BME280;71595;52.180;4.512;2023-09-30T04:48:48;102621.31;;;13.77;86.19
82033;BME280;71595;52.180;4.512;2023-09-30T04:51:13;102618.53;;;13.77;85.92
82033;BME280;71595;52.180;4.512;2023-09-30T04:53:41;102611.53;;;13.80;85.96
82033;BME280;71595;52.180;4.512;2023-09-30T04:56:07;102618.22;;;13.79;85.91
82033;BME280;71595;52.180;4.512;2023-09-30T04:58:32;102611.38;;;13.76;86.17
82033;BME280;71595;52.180;4.512;2023-09-30T05:00:58;102618.06;;;13.75;85.90
82033;BME280;71595;52.180;4.512;2023-09-30T05:03:23;102619.81;;;13.71;86.07
82033;BME280;71595;52.180;4.512;2023-09-30T05:05:51;102612.63;;;13.70;85.48
82033;BME280;71595;52.180;4.512;2023-09-30T05:08:18;102616.53;;;13.69;85.70
82033;BME280;71595;52.180;4.512;2023-09-30T05:10:44;102620.13;;;13.70;85.64
82033;BME280;71595;52.180;4.512;2023-09-30T05:13:09;102610.00;;;13.65;85.82
82033;BME280;71595;52.180;4.512;2023-09-30T05:15:35;102621.13;;;13.65;85.72
82033;BME280;71595;52.180;4.512;2023-09-30T05:18:01;102619.47;;;13.64;86.36
82033;BME280;71595;52.180;4.512;2023-09-30T05:20:27;102620.28;;;13.64;85.99
82033;BME280;71595;52.180;4.512;2023-09-30T05:22:52;102616.19;;;13.62;85.86
82033;BME280;71595;52.180;4.512;2023-09-30T05:25:18;102616.19;;;13.62;85.97
82033;BME280;71595;52.180;4.512;2023-09-30T05:27:46;102612.91;;;13.60;86.21
82033;BME280;71595;52.180;4.512;2023-09-30T05:30:14;102613.41;;;13.62;86.32
82033;BME280;71595;52.180;4.512;2023-09-30T05:32:41;102628.47;;;13.70;86.33
82033;BME280;71595;52.180;4.512;2023-09-30T05:35:06;102621.47;;;13.72;86.21
82033;BME280;71595;52.180;4.512;2023-09-30T05:37:41;102622.59;;;13.71;86.43
82033;BME280;71595;52.180;4.512;2023-09-30T05:40:08;102626.03;;;13.68;86.17
82033;BME280;71595;52.180;4.512;2023-09-30T05:42:58;102631.59;;;13.68;86.40
82033;BME280;71595;52.180;4.512;2023-09-30T05:45:24;102625.19;;;13.68;86.37
82033;BME280;71595;52.180;4.512;2023-09-30T05:47:51;102625.81;;;13.64;86.52
82033;BME280;71595;52.180;4.512;2023-09-30T05:50:18;102629.13;;;13.66;86.27
82033;BME280;71595;52.180;4.512;2023-09-30T05:52:49;102631.06;;;13.66;86.17
82033;BME280;71595;52.180;4.512;2023-09-30T05:55:19;102625.19;;;13.68;86.60
82033;BME280;71595;52.180;4.512;2023-09-30T05:57:48;102624.06;;;13.69;86.73
82033;BME280;71595;52.180;4.512;2023-09-30T06:00:26;102628.97;;;13.72;86.70
82033;BME280;71595;52.180;4.512;2023-09-30T06:02:55;102637.50;;;13.75;86.74
82033;BME280;71595;52.180;4.512;2023-09-30T06:05:21;102634.72;;;13.75;86.85
82033;BME280;71595;52.180;4.512;2023-09-30T06:07:52;102633.38;;;13.73;86.49
82033;BME280;71595;52.180;4.512;2023-09-30T06:10:19;102637.81;;;13.74;86.82
82033;BME280;71595;52.180;4.512;2023-09-30T06:12:48;102643.69;;;13.72;86.76
82033;BME280;71595;52.180;4.512;2023-09-30T06:15:15;102638.13;;;13.72;86.71
82033;BME280;71595;52.180;4.512;2023-09-30T06:17:41;102637.50;;;13.75;86.84
82033;BME280;71595;52.180;4.512;2023-09-30T06:20:07;102640.91;;;13.72;86.78
82033;BME280;71595;52.180;4.512;2023-09-30T06:22:33;102648.09;;;13.73;86.94
82033;BME280;71595;52.180;4.512;2023-09-30T06:24:59;102652.00;;;13.72;86.82
82033;BME280;71595;52.180;4.512;2023-09-30T06:27:24;102662.16;;;13.77;87.02
82033;BME280;71595;52.180;4.512;2023-09-30T06:29:49;102661.84;;;13.78;86.94
82033;BME280;71595;52.180;4.512;2023-09-30T06:32:15;102667.88;;;13.80;86.79
82033;BME280;71595;52.180;4.512;2023-09-30T06:34:40;102667.88;;;13.80;87.02
82033;BME280;71595;52.180;4.512;2023-09-30T06:37:06;102662.66;;;13.79;87.34
82033;BME280;71595;52.180;4.512;2023-09-30T06:39:31;102662.53;;;13.84;86.96
82033;BME280;71595;52.180;4.512;2023-09-30T06:41:56;102672.69;;;13.89;86.94
82033;BME280;71595;52.180;4.512;2023-09-30T06:44:22;102668.75;;;13.90;87.32
82033;BME280;71595;52.180;4.512;2023-09-30T06:46:50;102666.81;;;13.90;87.20
82033;BME280;71595;52.180;4.512;2023-09-30T06:49:16;102673.88;;;13.96;86.79
82033;BME280;71595;52.180;4.512;2023-09-30T06:51:41;102682.22;;;13.96;87.17
82033;BME280;71595;52.180;4.512;2023-09-30T06:54:07;102689.72;;;13.96;87.18
82033;BME280;71595;52.180;4.512;2023-09-30T06:56:33;102688.75;;;14.00;87.10
82033;BME280;71595;52.180;4.512;2023-09-30T06:58:58;102687.13;;;13.99;87.37
82033;BME280;71595;52.180;4.512;2023-09-30T07:01:25;102699.06;;;14.00;87.40
82033;BME280;71595;52.180;4.512;2023-09-30T07:03:50;102694.31;;;14.00;87.46
82033;BME280;71595;52.180;4.512;2023-09-30T07:06:25;102697.63;;;14.02;87.36
82033;BME280;71595;52.180;4.512;2023-09-30T07:08:51;102696.13;;;14.05;87.39
82033;BME280;71595;52.180;4.512;2023-09-30T07:11:26;102697.16;;;14.09;87.32
82033;BME280;71595;52.180;4.512;2023-09-30T07:13:51;102699.28;;;14.12;87.43
82033;BME280;71595;52.180;4.512;2023-09-30T07:16:16;102712.22;;;14.17;87.25
82033;BME280;71595;52.180;4.512;2023-09-30T07:18:42;102719.31;;;14.32;87.66
82033;BME280;71595;52.180;4.512;2023-09-30T07:21:07;102718.03;;;14.38;87.39
82033;BME280;71595;52.180;4.512;2023-09-30T07:23:33;102720.84;;;14.47;87.41
82033;BME280;71595;52.180;4.512;2023-09-30T07:25:58;102718.25;;;14.50;86.87
82033;BME280;71595;52.180;4.512;2023-09-30T07:28:24;102725.81;;;14.59;87.13
82033;BME280;71595;52.180;4.512;2023-09-30T07:30:49;102723.56;;;14.61;86.91
82033;BME280;71595;52.180;4.512;2023-09-30T07:33:15;102734.03;;;14.64;86.55
82033;BME280;71595;52.180;4.512;2023-09-30T07:35:40;102734.03;;;14.64;86.76
82033;BME280;71595;52.180;4.512;2023-09-30T07:38:06;102739.59;;;14.64;86.76
82033;BME280;71595;52.180;4.512;2023-09-30T07:40:31;102731.59;;;14.62;86.59
82033;BME280;71595;52.180;4.512;2023-09-30T07:42:57;102717.69;;;14.62;86.61
82033;BME280;71595;52.180;4.512;2023-09-30T07:45:23;102715.38;;;14.64;86.89
82033;BME280;71595;52.180;4.512;2023-09-30T07:47:48;102713.13;;;14.66;86.58
82033;BME280;71595;52.180;4.512;2023-09-30T07:50:14;102713.44;;;14.65;86.17
82033;BME280;71595;52.180;4.512;2023-09-30T07:52:40;102711.00;;;14.63;86.75
82033;BME280;71595;52.180;4.512;2023-09-30T07:55:06;102715.72;;;14.63;86.79
82033;BME280;71595;52.180;4.512;2023-09-30T07:57:33;102710.75;;;14.60;86.80
82033;BME280;71595;52.180;4.512;2023-09-30T07:59:58;102703.28;;;14.60;86.80
82033;BME280;71595;52.180;4.512;2023-09-30T08:02:24;102696.25;;;14.63;86.82
82033;BME280;71595;52.180;4.512;2023-09-30T08:04:53;102692.16;;;14.69;86.63
82033;BME280;71595;52.180;4.512;2023-09-30T08:07:18;102692.53;;;14.76;86.27
82033;BME280;71595;52.180;4.512;2023-09-30T08:09:43;102698.25;;;14.80;86.38
82033;BME280;71595;52.180;4.512;2023-09-30T08:12:09;102706.28;;;14.81;86.79
82033;BME280;71595;52.180;4.512;2023-09-30T08:14:34;102703.97;;;14.83;86.07
82033;BME280;71595;52.180;4.512;2023-09-30T08:16:59;102704.34;;;14.90;86.06
82033;BME280;71595;52.180;4.512;2023-09-30T08:19:25;102704.69;;;14.98;85.68
82033;BME280;71595;52.180;4.512;2023-09-30T08:21:50;102709.44;;;15.06;85.58
82033;BME280;71595;52.180;4.512;2023-09-30T08:24:17;102703.25;;;15.18;85.28
82033;BME280;71595;52.180;4.512;2023-09-30T08:26:42;102701.91;;;15.33;84.94
82033;BME280;71595;52.180;4.512;2023-09-30T08:29:08;102690.63;;;15.38;84.75
82033;BME280;71595;52.180;4.512;2023-09-30T08:31:33;102702.91;;;15.45;84.60
82033;BME280;71595;52.180;4.512;2023-09-30T08:33:59;102706.50;;;15.55;85.01
82033;BME280;71595;52.180;4.512;2023-09-30T08:36:24;102706.50;;;15.63;84.56
82033;BME280;71595;52.180;4.512;2023-09-30T08:38:50;102711.22;;;15.72;84.36
82033;BME280;71595;52.180;4.512;2023-09-30T08:41:45;102715.66;;;15.81;84.27
82033;BME280;71595;52.180;4.512;2023-09-30T08:44:10;102718.78;;;15.89;84.02
82033;BME280;71595;52.180;4.512;2023-09-30T08:46:36;102726.28;;;15.97;82.75
82033;BME280;71595;52.180;4.512;2023-09-30T08:49:03;102729.72;;;16.03;82.43
82033;BME280;71595;52.180;4.512;2023-09-30T08:51:30;102737.63;;;16.01;82.85
82033;BME280;71595;52.180;4.512;2023-09-30T08:53:56;102745.66;;;16.02;83.00
82033;BME280;71595;52.180;4.512;2023-09-30T08:56:28;102754.81;;;16.03;83.03
82033;BME280;71595;52.180;4.512;2023-09-30T08:58:58;102756.94;;;16.06;82.99
82033;BME280;71595;52.180;4.512;2023-09-30T09:01:33;102768.41;;;16.04;83.46
82033;BME280;71595;52.180;4.512;2023-09-30T09:04:00;102769.22;;;16.05;82.95
82033;BME280;71595;52.180;4.512;2023-09-30T09:06:26;102774.78;;;16.05;82.68
82033;BME280;71595;52.180;4.512;2023-09-30T09:08:51;102785.78;;;16.01;82.23
82033;BME280;71595;52.180;4.512;2023-09-30T09:11:17;102787.25;;;15.98;81.19
82033;BME280;71595;52.180;4.512;2023-09-30T09:13:48;102794.63;;;16.03;81.59
82033;BME280;71595;52.180;4.512;2023-09-30T09:16:16;102793.50;;;16.13;80.66
82033;BME280;71595;52.180;4.512;2023-09-30T09:18:42;102799.88;;;16.13;81.32
82033;BME280;71595;52.180;4.512;2023-09-30T09:21:09;102795.91;;;16.23;81.27
82033;BME280;71595;52.180;4.512;2023-09-30T09:23:54;102788.69;;;16.31;80.79
82033;BME280;71595;52.180;4.512;2023-09-30T09:26:25;102782.13;;;16.35;80.59
82033;BME280;71595;52.180;4.512;2023-09-30T09:29:01;102785.22;;;16.43;80.17
82033;BME280;71595;52.180;4.512;2023-09-30T09:31:28;102793.53;;;16.51;80.36
82033;BME280;71595;52.180;4.512;2023-09-30T09:33:54;102798.13;;;16.56;79.91
82033;BME280;71595;52.180;4.512;2023-09-30T09:36:20;102800.25;;;16.59;80.29
82033;BME280;71595;52.180;4.512;2023-09-30T09:38:50;102784.47;;;16.63;79.11
82033;BME280;71595;52.180;4.512;2023-09-30T09:41:19;102784.28;;;16.68;78.85
82033;BME280;71595;52.180;4.512;2023-09-30T09:43:49;102783.63;;;16.71;78.79
82033;BME280;71595;52.180;4.512;2023-09-30T09:46:17;102789.03;;;16.77;77.54
82033;BME280;71595;52.180;4.512;2023-09-30T09:48:45;102798.84;;;16.83;77.42
82033;BME280;71595;52.180;4.512;2023-09-30T09:51:12;102803.59;;;16.91;77.15
82033;BME280;71595;52.180;4.512;2023-09-30T09:53:38;102799.47;;;16.97;75.74
82033;BME280;71595;52.180;4.512;2023-09-30T09:56:08;102796.47;;;17.02;75.59
82033;BME280;71595;52.180;4.512;2023-09-30T09:58:36;102785.94;;;17.08;75.06
82033;BME280;71595;52.180;4.512;2023-09-30T10:01:05;102765.38;;;17.13;74.19
82033;BME280;71595;52.180;4.512;2023-09-30T10:03:31;102762.19;;;17.23;74.45
82033;BME280;71595;52.180;4.512;2023-09-30T10:05:57;102750.34;;;17.26;72.02
82033;BME280;71595;52.180;4.512;2023-09-30T10:08:30;102757.84;;;17.34;72.40
82033;BME280;71595;52.180;4.512;2023-09-30T10:10:57;102748.50;;;17.30;69.94
82033;BME280;71595;52.180;4.512;2023-09-30T10:13:50;102752.59;;;17.33;69.11
82033;BME280;71595;52.180;4.512;2023-09-30T10:19:20;102761.09;;;17.15;69.23
82033;BME280;71595;52.180;4.512;2023-09-30T10:24:52;102757.53;;;17.06;68.68
82033;BME280;71595;52.180;4.512;2023-09-30T10:30:08;102747.88;;;17.03;68.08
82033;BME280;71595;52.180;4.512;2023-09-30T10:35:42;102751.81;;;17.02;67.98
82033;BME280;71595;52.180;4.512;2023-09-30T10:40:53;102751.59;;;17.07;67.52
82033;BME280;71595;52.180;4.512;2023-09-30T10:43:39;102752.66;;;17.24;68.07
82033;BME280;71595;52.180;4.512;2023-09-30T10:48:52;102754.16;;;17.42;67.55
82033;BME280;71595;52.180;4.512;2023-09-30T10:51:18;102748.16;;;17.53;66.55
82033;BME280;71595;52.180;4.512;2023-09-30T10:53:50;102751.34;;;17.64;66.74
82033;BME280;71595;52.180;4.512;2023-09-30T10:56:23;102747.34;;;17.73;66.02
82033;BME280;71595;52.180;4.512;2023-09-30T10:58:50;102742.69;;;17.77;66.96
82033;BME280;71595;52.180;4.512;2023-09-30T11:01:20;102742.34;;;17.79;65.01
82033;BME280;71595;52.180;4.512;2023-09-30T11:03:46;102745.97;;;17.79;65.65
82033;BME280;71595;52.180;4.512;2023-09-30T11:06:17;102737.25;;;17.81;64.79
82033;BME280;71595;52.180;4.512;2023-09-30T11:08:46;102726.88;;;17.82;61.75
82033;BME280;71595;52.180;4.512;2023-09-30T11:11:15;102718.16;;;17.83;61.19
82033;BME280;71595;52.180;4.512;2023-09-30T11:13:41;102712.56;;;17.83;61.52
82033;BME280;71595;52.180;4.512;2023-09-30T11:16:06;102718.94;;;17.84;61.67
82033;BME280;71595;52.180;4.512;2023-09-30T11:18:33;102718.25;;;17.87;62.35
82033;BME280;71595;52.180;4.512;2023-09-30T11:21:17;102725.56;;;18.00;61.23
82033;BME280;71595;52.180;4.512;2023-09-30T11:23:43;102721.38;;;18.06;62.06
82033;BME280;71595;52.180;4.512;2023-09-30T11:26:09;102730.94;;;18.05;61.75
82033;BME280;71595;52.180;4.512;2023-09-30T11:28:42;102730.69;;;18.10;60.88
82033;BME280;71595;52.180;4.512;2023-09-30T11:31:11;102733.25;;;18.03;61.84
82033;BME280;71595;52.180;4.512;2023-09-30T11:33:49;102734.97;;;17.95;62.67
82033;BME280;71595;52.180;4.512;2023-09-30T11:36:17;102748.00;;;17.91;63.48
82033;BME280;71595;52.180;4.512;2023-09-30T11:38:48;102741.59;;;17.91;62.78
82033;BME280;71595;52.180;4.512;2023-09-30T11:41:15;102746.00;;;17.92;62.84
82033;BME280;71595;52.180;4.512;2023-09-30T11:44:07;102738.34;;;17.89;63.37
82033;BME280;71595;52.180;4.512;2023-09-30T11:47:00;102738.16;;;17.85;63.37
82033;BME280;71595;52.180;4.512;2023-09-30T11:49:36;102729.31;;;17.83;63.85
82033;BME280;71595;52.180;4.512;2023-09-30T11:52:05;102721.75;;;17.84;64.68
82033;BME280;71595;52.180;4.512;2023-09-30T11:54:36;102712.66;;;17.87;63.42
82033;BME280;71595;52.180;4.512;2023-09-30T11:57:07;102705.63;;;17.89;64.27
82033;BME280;71595;52.180;4.512;2023-09-30T11:59:36;102712.97;;;17.94;63.86
82033;BME280;71595;52.180;4.512;2023-09-30T12:02:02;102715.41;;;17.95;63.98
82033;BME280;71595;52.180;4.512;2023-09-30T12:04:29;102711.31;;;17.93;64.25
82033;BME280;71595;52.180;4.512;2023-09-30T12:06:55;102706.88;;;17.92;64.17
82033;BME280;71595;52.180;4.512;2023-09-30T12:09:20;102700.03;;;17.89;63.72
82033;BME280;71595;52.180;4.512;2023-09-30T12:11:52;102702.47;;;17.91;63.70
82033;BME280;71595;52.180;4.512;2023-09-30T12:14:20;102700.59;;;17.95;64.15
82033;BME280;71595;52.180;4.512;2023-09-30T12:16:46;102701.09;;;17.97;63.38
82033;BME280;71595;52.180;4.512;2023-09-30T12:19:12;102706.00;;;18.00;63.54
82033;BME280;71595;52.180;4.512;2023-09-30T12:21:39;102705.31;;;18.03;62.02
82033;BME280;71595;52.180;4.512;2023-09-30T12:24:08;102704.81;;;18.01;61.84
82033;BME280;71595;52.180;4.512;2023-09-30T12:26:35;102700.16;;;17.93;62.73
82033;BME280;71595;52.180;4.512;2023-09-30T12:29:01;102699.91;;;17.98;61.77
82033;BME280;71595;52.180;4.512;2023-09-30T12:31:27;102702.38;;;18.00;60.83
82033;BME280;71595;52.180;4.512;2023-09-30T12:33:52;102702.72;;;17.98;61.74
82033;BME280;71595;52.180;4.512;2023-09-30T12:36:20;102698.75;;;17.99;59.88
82033;BME280;71595;52.180;4.512;2023-09-30T12:38:46;102703.19;;;18.00;60.46
82033;BME280;71595;52.180;4.512;2023-09-30T12:41:12;102706.00;;;18.00;60.56
82033;BME280;71595;52.180;4.512;2023-09-30T12:43:38;102693.88;;;17.96;60.53
82033;BME280;71595;52.180;4.512;2023-09-30T12:46:03;102692.22;;;17.95;60.82
82033;BME280;71595;52.180;4.512;2023-09-30T12:48:30;102692.56;;;17.93;60.20
82033;BME280;71595;52.180;4.512;2023-09-30T12:50:56;102693.88;;;17.96;60.51
82033;BME280;71595;52.180;4.512;2023-09-30T12:53:21;102695.84;;;17.95;60.91
82033;BME280;71595;52.180;4.512;2023-09-30T12:55:46;102683.84;;;17.95;61.08
82033;BME280;71595;52.180;4.512;2023-09-30T12:58:12;102695.50;;;17.97;60.53
82033;BME280;71595;52.180;4.512;2023-09-30T13:00:38;102685.13;;;17.98;60.12
82033;BME280;71595;52.180;4.512;2023-09-30T13:03:03;102682.69;;;17.96;61.18
82033;BME280;71595;52.180;4.512;2023-09-30T13:05:29;102688.97;;;17.93;61.03
82033;BME280;71595;52.180;4.512;2023-09-30T13:07:57;102680.78;;;17.88;62.26